sensor_id;sensor_type;location;lat;lon;timestamp;temperature;humidity
5138;DHT22;53959;53.626;11.410;2022-11-15T00:00:50;6.40;99.90
5138;DHT22;53959;53.626;11.410;2022-11-15T00:03:17;6.40;99.90
5138;DHT22;53959;53.626;11.410;2022-11-15T00:05:43;6.40;99.90
5138;DHT22;53959;53.626;11.410;2022-11-15T00:08:09;6.40;99.90
5138;DHT22;53959;53.626;11.410;2022-11-15T00:10:36;6.40;99.90
5138;DHT22;53959;53.626;11.410;2022-11-15T00:13:08;6.40;99.90
5138;DHT22;53959;53.626;11.410;2022-11-15T00:15:38;6.40;99.90
5138;DHT22;53959;53.626;11.410;2022-11-15T00:18:05;6.30;99.90
5138;DHT22;53959;53.626;11.410;2022-11-15T00:20:33;6.40;99.90
5138;DHT22;53959;53.626;11.410;2022-11-15T00:22:59;6.40;99.90
5138;DHT22;53959;53.626;11.410;2022-11-15T00:25:25;6.50;99.90
5138;DHT22;53959;53.626;11.410;2022-11-15T00:27:54;6.40;99.90
5138;DHT22;53959;53.626;11.410;2022-11-15T00:30:20;6.40;99.90
5138;DHT22;53959;53.626;11.410;2022-11-15T00:32:45;6.30;99.90
5138;DHT22;53959;53.626;11.410;2022-11-15T00:35:11;6.30;99.90
5138;DHT22;53959;53.626;11.410;2022-11-15T00:37:36;6.30;99.90
5138;DHT22;53959;53.626;11.410;2022-11-15T00:40:02;6.30;99.90
5138;DHT22;53959;53.626;11.410;2022-11-15T00:42:27;6.30;99.90
5138;DHT22;53959;53.626;11.410;2022-11-15T00:44:53;6.20;99.90
5138;DHT22;53959;53.626;11.410;2022-11-15T00:47:18;6.30;99.90
5138;DHT22;53959;53.626;11.410;2022-11-15T00:49:44;6.20;99.90
5138;DHT22;53959;53.626;11.410;2022-11-15T00:52:09;6.20;99.90
5138;DHT22;53959;53.626;11.410;2022-11-15T00:54:35;6.20;99.90
5138;DHT22;53959;53.626;11.410;2022-11-15T00:57:00;6.20;99.90
5138;DHT22;53959;53.626;11.410;2022-11-15T00:59:26;6.20;99.90
5138;DHT22;53959;53.626;11.410;2022-11-15T01:01:51;6.20;99.90
5138;DHT22;53959;53.626;11.410;2022-11-15T01:04:17;6.20;99.90
5138;DHT22;53959;53.626;11.410;2022-11-15T01:06:42;6.20;99.90
5138;DHT22;53959;53.626;11.410;2022-11-15T01:09:08;6.10;99.90
5138;DHT22;53959;53.626;11.410;2022-11-15T01:11:33;6.10;99.90
5138;DHT22;53959;53.626;11.410;2022-11-15T01:13:59;6.10;99.90
5138;DHT22;53959;53.626;11.410;2022-11-15T01:16:24;6.10;99.90
5138;DHT22;53959;53.626;11.410;2022-11-15T01:18:50;6.10;99.90
5138;DHT22;53959;53.626;11.410;2022-11-15T01:21:18;6.10;99.90
5138;DHT22;53959;53.626;11.410;2022-11-15T01:23:44;6.00;99.90
5138;DHT22;53959;53.626;11.410;2022-11-15T01:26:13;6.00;99.90
5138;DHT22;53959;53.626;11.410;2022-11-15T01:28:40;6.00;99.90
5138;DHT22;53959;53.626;11.410;2022-11-15T01:31:09;6.00;99.90
5138;DHT22;53959;53.626;11.410;2022-11-15T01:33:35;6.00;99.90
5138;DHT22;53959;53.626;11.410;2022-11-15T01:36:05;6.00;99.90
5138;DHT22;53959;53.626;11.410;2022-11-15T01:38:30;5.90;99.90
5138;DHT22;53959;53.626;11.410;2022-11-15T01:40:56;5.90;99.90
5138;DHT22;53959;53.626;11.410;2022-11-15T01:43:33;5.80;99.90
5138;DHT22;53959;53.626;11.410;2022-11-15T01:46:21;5.80;99.90
5138;DHT22;53959;53.626;11.410;2022-11-15T01:48:50;5.80;99.90
5138;DHT22;53959;53.626;11.410;2022-11-15T01:51:17;5.80;99.90
5138;DHT22;53959;53.626;11.410;2022-11-15T01:53:47;5.80;99.90
5138;DHT22;53959;53.626;11.410;2022-11-15T01:56:18;5.80;99.90
5138;DHT22;53959;53.626;11.410;2022-11-15T01:58:45;5.80;99.90
5138;DHT22;53959;53.626;11.410;2022-11-15T02:01:13;5.80;99.90
5138;DHT22;53959;53.626;11.410;2022-11-15T02:03:50;5.80;99.90
5138;DHT22;53959;53.626;11.410;2022-11-15T02:06:17;5.70;99.90
5138;DHT22;53959;53.626;11.410;2022-11-15T02:08:44;5.70;99.90
5138;DHT22;53959;53.626;11.410;2022-11-15T02:11:10;5.80;99.90
5138;DHT22;53959;53.626;11.410;2022-11-15T02:13:36;5.80;99.90
5138;DHT22;53959;53.626;11.410;2022-11-15T02:18:54;5.80;99.90
5138;DHT22;53959;53.626;11.410;2022-11-15T02:21:48;5.70;99.90
5138;DHT22;53959;53.626;11.410;2022-11-15T02:24:23;5.70;99.90
5138;DHT22;53959;53.626;11.410;2022-11-15T02:27:38;5.70;99.90
5138;DHT22;53959;53.626;11.410;2022-11-15T02:30:33;5.70;99.90
5138;DHT22;53959;53.626;11.410;2022-11-15T02:33:08;5.70;99.90
5138;DHT22;53959;53.626;11.410;2022-11-15T02:35:44;5.70;99.90
5138;DHT22;53959;53.626;11.410;2022-11-15T02:38:27;5.60;99.90
5138;DHT22;53959;53.626;11.410;2022-11-15T02:41:02;5.60;99.90
5138;DHT22;53959;53.626;11.410;2022-11-15T02:43:36;5.50;99.90
5138;DHT22;53959;53.626;11.410;2022-11-15T02:46:37;5.60;99.90
5138;DHT22;53959;53.626;11.410;2022-11-15T02:49:25;5.50;99.90
5138;DHT22;53959;53.626;11.410;2022-11-15T02:51:52;5.40;99.90
5138;DHT22;53959;53.626;11.410;2022-11-15T02:54:26;5.50;99.90
5138;DHT22;53959;53.626;11.410;2022-11-15T02:56:56;5.50;99.90
5138;DHT22;53959;53.626;11.410;2022-11-15T02:59:52;5.50;99.90
5138;DHT22;53959;53.626;11.410;2022-11-15T03:05:35;5.40;99.90
5138;DHT22;53959;53.626;11.410;2022-11-15T03:08:23;5.40;99.90
5138;DHT22;53959;53.626;11.410;2022-11-15T03:10:57;5.40;99.90
5138;DHT22;53959;53.626;11.410;2022-11-15T03:13:36;5.40;99.90
5138;DHT22;53959;53.626;11.410;2022-11-15T03:16:51;5.30;99.90
5138;DHT22;53959;53.626;11.410;2022-11-15T03:18:56;5.30;99.90
5138;DHT22;53959;53.626;11.410;2022-11-15T03:21:22;5.30;99.90
5138;DHT22;53959;53.626;11.410;2022-11-15T03:23:50;5.40;99.90
5138;DHT22;53959;53.626;11.410;2022-11-15T03:26:18;5.30;99.90
5138;DHT22;53959;53.626;11.410;2022-11-15T03:28:55;5.30;99.90
5138;DHT22;53959;53.626;11.410;2022-11-15T03:31:23;5.30;99.90
5138;DHT22;53959;53.626;11.410;2022-11-15T03:34:59;5.30;99.90
5138;DHT22;53959;53.626;11.410;2022-11-15T03:36:59;5.30;99.90
5138;DHT22;53959;53.626;11.410;2022-11-15T03:39:25;5.30;99.90
5138;DHT22;53959;53.626;11.410;2022-11-15T03:42:10;5.30;99.90
5138;DHT22;53959;53.626;11.410;2022-11-15T03:44:57;5.30;99.90
5138;DHT22;53959;53.626;11.410;2022-11-15T03:47:39;5.30;99.90
5138;DHT22;53959;53.626;11.410;2022-11-15T03:50:13;5.30;99.90
5138;DHT22;53959;53.626;11.410;2022-11-15T03:52:40;5.30;99.90
5138;DHT22;53959;53.626;11.410;2022-11-15T03:55:09;5.30;99.90
5138;DHT22;53959;53.626;11.410;2022-11-15T03:57:35;5.40;99.90
5138;DHT22;53959;53.626;11.410;2022-11-15T04:00:01;5.40;99.90
5138;DHT22;53959;53.626;11.410;2022-11-15T04:02:26;5.40;99.90
5138;DHT22;53959;53.626;11.410;2022-11-15T04:04:53;5.30;99.90
5138;DHT22;53959;53.626;11.410;2022-11-15T04:07:18;5.40;99.90
5138;DHT22;53959;53.626;11.410;2022-11-15T04:09:44;5.30;99.90
5138;DHT22;53959;53.626;11.410;2022-11-15T04:12:43;5.40;99.90
5138;DHT22;53959;53.626;11.410;2022-11-15T04:15:15;5.30;99.90
5138;DHT22;53959;53.626;11.410;2022-11-15T04:17:43;5.40;99.90
5138;DHT22;53959;53.626;11.410;2022-11-15T04:20:32;5.30;99.90
5138;DHT22;53959;53.626;11.410;2022-11-15T04:23:20;5.30;99.90
5138;DHT22;53959;53.626;11.410;2022-11-15T04:26:06;5.30;99.90
5138;DHT22;53959;53.626;11.410;2022-11-15T04:28:33;5.30;99.90
5138;DHT22;53959;53.626;11.410;2022-11-15T04:30:59;5.30;99.90
5138;DHT22;53959;53.626;11.410;2022-11-15T04:33:25;5.30;99.90
5138;DHT22;53959;53.626;11.410;2022-11-15T04:35:50;5.40;99.90
5138;DHT22;53959;53.626;11.410;2022-11-15T04:38:35;5.40;99.90
5138;DHT22;53959;53.626;11.410;2022-11-15T04:41:01;5.40;99.90
5138;DHT22;53959;53.626;11.410;2022-11-15T04:43:27;5.40;99.90
5138;DHT22;53959;53.626;11.410;2022-11-15T04:45:53;5.40;99.90
5138;DHT22;53959;53.626;11.410;2022-11-15T04:48:18;5.50;99.90
5138;DHT22;53959;53.626;11.410;2022-11-15T04:50:44;5.50;99.90
5138;DHT22;53959;53.626;11.410;2022-11-15T04:53:09;5.50;99.90
5138;DHT22;53959;53.626;11.410;2022-11-15T04:55:35;5.60;99.90
5138;DHT22;53959;53.626;11.410;2022-11-15T04:58:01;5.60;99.90
5138;DHT22;53959;53.626;11.410;2022-11-15T05:00:28;5.70;99.90
5138;DHT22;53959;53.626;11.410;2022-11-15T05:02:54;5.70;99.90
5138;DHT22;53959;53.626;11.410;2022-11-15T05:05:38;5.80;99.90
5138;DHT22;53959;53.626;11.410;2022-11-15T05:08:04;5.80;99.90
5138;DHT22;53959;53.626;11.410;2022-11-15T05:10:30;5.80;99.90
5138;DHT22;53959;53.626;11.410;2022-11-15T05:12:55;5.80;99.90
5138;DHT22;53959;53.626;11.410;2022-11-15T05:15:21;5.80;99.90
5138;DHT22;53959;53.626;11.410;2022-11-15T05:17:46;5.90;99.90
5138;DHT22;53959;53.626;11.410;2022-11-15T05:20:12;5.90;99.90
5138;DHT22;53959;53.626;11.410;2022-11-15T05:22:38;6.00;99.90
5138;DHT22;53959;53.626;11.410;2022-11-15T05:25:05;6.00;99.90
5138;DHT22;53959;53.626;11.410;2022-11-15T05:27:30;6.00;99.90
5138;DHT22;53959;53.626;11.410;2022-11-15T05:29:56;6.00;99.90
5138;DHT22;53959;53.626;11.410;2022-11-15T05:32:22;6.00;99.90
5138;DHT22;53959;53.626;11.410;2022-11-15T05:34:47;6.00;99.90
5138;DHT22;53959;53.626;11.410;2022-11-15T05:37:13;6.00;99.90
5138;DHT22;53959;53.626;11.410;2022-11-15T05:39:39;6.10;99.90
5138;DHT22;53959;53.626;11.410;2022-11-15T05:42:09;6.10;99.90
5138;DHT22;53959;53.626;11.410;2022-11-15T05:44:36;6.10;99.90
5138;DHT22;53959;53.626;11.410;2022-11-15T05:47:04;6.30;99.90
5138;DHT22;53959;53.626;11.410;2022-11-15T05:49:34;6.30;99.90
5138;DHT22;53959;53.626;11.410;2022-11-15T05:52:03;6.40;99.90
5138;DHT22;53959;53.626;11.410;2022-11-15T05:54:30;6.30;99.90
5138;DHT22;53959;53.626;11.410;2022-11-15T05:56:57;6.50;99.90
5138;DHT22;53959;53.626;11.410;2022-11-15T05:59:23;6.50;99.90
5138;DHT22;53959;53.626;11.410;2022-11-15T06:01:48;6.50;99.90
5138;DHT22;53959;53.626;11.410;2022-11-15T06:04:14;6.50;99.90
5138;DHT22;53959;53.626;11.410;2022-11-15T06:06:39;6.60;99.90
5138;DHT22;53959;53.626;11.410;2022-11-15T06:09:05;6.50;99.90
5138;DHT22;53959;53.626;11.410;2022-11-15T06:11:30;6.60;99.90
5138;DHT22;53959;53.626;11.410;2022-11-15T06:13:56;6.70;99.90
5138;DHT22;53959;53.626;11.410;2022-11-15T06:16:21;6.70;99.90
5138;DHT22;53959;53.626;11.410;2022-11-15T06:18:47;6.80;99.90
5138;DHT22;53959;53.626;11.410;2022-11-15T06:21:12;6.80;99.90
5138;DHT22;53959;53.626;11.410;2022-11-15T06:23:38;6.80;99.90
5138;DHT22;53959;53.626;11.410;2022-11-15T06:26:04;6.80;99.90
5138;DHT22;53959;53.626;11.410;2022-11-15T06:28:30;6.90;99.90
5138;DHT22;53959;53.626;11.410;2022-11-15T06:31:02;6.90;99.90
5138;DHT22;53959;53.626;11.410;2022-11-15T06:33:28;6.90;99.90
5138;DHT22;53959;53.626;11.410;2022-11-15T06:35:53;7.00;99.90
5138;DHT22;53959;53.626;11.410;2022-11-15T06:38:19;6.90;99.90
5138;DHT22;53959;53.626;11.410;2022-11-15T06:40:45;7.00;99.90
5138;DHT22;53959;53.626;11.410;2022-11-15T06:43:10;7.10;99.90
5138;DHT22;53959;53.626;11.410;2022-11-15T06:45:36;7.00;99.90
5138;DHT22;53959;53.626;11.410;2022-11-15T06:48:01;7.10;99.90
5138;DHT22;53959;53.626;11.410;2022-11-15T06:50:27;7.10;99.90
5138;DHT22;53959;53.626;11.410;2022-11-15T06:52:52;7.10;99.90
5138;DHT22;53959;53.626;11.410;2022-11-15T06:55:18;7.00;99.90
5138;DHT22;53959;53.626;11.410;2022-11-15T06:57:51;7.00;99.90
5138;DHT22;53959;53.626;11.410;2022-11-15T07:00:18;7.00;99.90
5138;DHT22;53959;53.626;11.410;2022-11-15T07:02:44;7.10;99.90
5138;DHT22;53959;53.626;11.410;2022-11-15T07:05:11;7.10;99.90
5138;DHT22;53959;53.626;11.410;2022-11-15T07:07:36;7.10;99.90
5138;DHT22;53959;53.626;11.410;2022-11-15T07:10:02;7.10;99.90
5138;DHT22;53959;53.626;11.410;2022-11-15T07:12:28;7.10;99.90
5138;DHT22;53959;53.626;11.410;2022-11-15T07:14:53;7.10;99.90
5138;DHT22;53959;53.626;11.410;2022-11-15T07:17:19;7.20;99.90
5138;DHT22;53959;53.626;11.410;2022-11-15T07:19:44;7.20;99.90
5138;DHT22;53959;53.626;11.410;2022-11-15T07:22:10;7.20;99.90
5138;DHT22;53959;53.626;11.410;2022-11-15T07:24:35;7.30;99.90
5138;DHT22;53959;53.626;11.410;2022-11-15T07:27:00;7.20;99.90
5138;DHT22;53959;53.626;11.410;2022-11-15T07:29:26;7.30;99.90
5138;DHT22;53959;53.626;11.410;2022-11-15T07:31:52;7.30;99.90
5138;DHT22;53959;53.626;11.410;2022-11-15T07:34:17;7.30;99.90
5138;DHT22;53959;53.626;11.410;2022-11-15T07:36:43;7.30;99.90
5138;DHT22;53959;53.626;11.410;2022-11-15T07:39:08;7.30;99.90
5138;DHT22;53959;53.626;11.410;2022-11-15T07:41:34;7.30;99.90
5138;DHT22;53959;53.626;11.410;2022-11-15T07:44:00;7.40;99.90
5138;DHT22;53959;53.626;11.410;2022-11-15T07:46:26;7.40;99.90
5138;DHT22;53959;53.626;11.410;2022-11-15T07:48:52;7.50;99.90
5138;DHT22;53959;53.626;11.410;2022-11-15T07:51:17;7.50;99.90
5138;DHT22;53959;53.626;11.410;2022-11-15T07:53:44;7.50;99.90
5138;DHT22;53959;53.626;11.410;2022-11-15T07:56:10;7.50;99.90
5138;DHT22;53959;53.626;11.410;2022-11-15T07:58:35;7.60;99.90
5138;DHT22;53959;53.626;11.410;2022-11-15T08:01:09;7.60;99.90
5138;DHT22;53959;53.626;11.410;2022-11-15T08:03:35;7.70;99.90
5138;DHT22;53959;53.626;11.410;2022-11-15T08:06:01;7.70;99.90
5138;DHT22;53959;53.626;11.410;2022-11-15T08:08:26;7.80;99.90
5138;DHT22;53959;53.626;11.410;2022-11-15T08:10:52;7.80;99.90
5138;DHT22;53959;53.626;11.410;2022-11-15T08:13:18;7.80;99.90
5138;DHT22;53959;53.626;11.410;2022-11-15T08:15:43;7.80;99.90
5138;DHT22;53959;53.626;11.410;2022-11-15T08:18:14;7.90;99.90
5138;DHT22;53959;53.626;11.410;2022-11-15T08:20:41;7.90;99.90
5138;DHT22;53959;53.626;11.410;2022-11-15T08:23:07;7.90;99.90
5138;DHT22;53959;53.626;11.410;2022-11-15T08:25:34;8.00;99.90
5138;DHT22;53959;53.626;11.410;2022-11-15T08:28:02;8.00;99.90
5138;DHT22;53959;53.626;11.410;2022-11-15T08:30:28;8.10;99.90
5138;DHT22;53959;53.626;11.410;2022-11-15T08:32:57;8.20;99.90
5138;DHT22;53959;53.626;11.410;2022-11-15T08:35:23;8.20;99.90
5138;DHT22;53959;53.626;11.410;2022-11-15T08:37:49;8.20;99.90
5138;DHT22;53959;53.626;11.410;2022-11-15T08:40:15;8.30;99.90
5138;DHT22;53959;53.626;11.410;2022-11-15T08:42:41;8.30;99.90
5138;DHT22;53959;53.626;11.410;2022-11-15T08:45:07;8.40;99.90
5138;DHT22;53959;53.626;11.410;2022-11-15T08:47:34;8.40;99.90
5138;DHT22;53959;53.626;11.410;2022-11-15T08:49:59;8.50;99.90
5138;DHT22;53959;53.626;11.410;2022-11-15T08:52:25;8.50;99.90
5138;DHT22;53959;53.626;11.410;2022-11-15T08:54:50;8.60;99.90
5138;DHT22;53959;53.626;11.410;2022-11-15T08:57:16;8.60;99.90
5138;DHT22;53959;53.626;11.410;2022-11-15T08:59:42;8.60;99.90
5138;DHT22;53959;53.626;11.410;2022-11-15T09:02:12;8.60;99.90
5138;DHT22;53959;53.626;11.410;2022-11-15T09:04:39;8.70;99.90
5138;DHT22;53959;53.626;11.410;2022-11-15T09:07:05;8.60;99.90
5138;DHT22;53959;53.626;11.410;2022-11-15T09:09:31;8.70;99.90
5138;DHT22;53959;53.626;11.410;2022-11-15T09:11:56;8.80;99.90
5138;DHT22;53959;53.626;11.410;2022-11-15T09:14:21;8.80;99.90
5138;DHT22;53959;53.626;11.410;2022-11-15T09:16:47;8.90;99.90
5138;DHT22;53959;53.626;11.410;2022-11-15T09:19:12;8.90;99.90
5138;DHT22;53959;53.626;11.410;2022-11-15T09:21:40;9.00;99.90
5138;DHT22;53959;53.626;11.410;2022-11-15T09:24:05;9.00;99.90
5138;DHT22;53959;53.626;11.410;2022-11-15T09:26:31;9.10;99.90
5138;DHT22;53959;53.626;11.410;2022-11-15T09:28:56;9.20;99.90
5138;DHT22;53959;53.626;11.410;2022-11-15T09:31:22;9.20;99.90
5138;DHT22;53959;53.626;11.410;2022-11-15T09:33:47;9.30;99.90
5138;DHT22;53959;53.626;11.410;2022-11-15T09:36:13;9.40;99.90
5138;DHT22;53959;53.626;11.410;2022-11-15T09:38:39;9.50;99.90
5138;DHT22;53959;53.626;11.410;2022-11-15T09:44:13;9.50;99.90
5138;DHT22;53959;53.626;11.410;2022-11-15T09:47:10;9.70;99.90
5138;DHT22;53959;53.626;11.410;2022-11-15T09:49:41;9.70;99.90
5138;DHT22;53959;53.626;11.410;2022-11-15T09:52:07;9.90;99.90
5138;DHT22;53959;53.626;11.410;2022-11-15T09:54:37;9.90;99.90
5138;DHT22;53959;53.626;11.410;2022-11-15T09:57:14;9.80;99.90
5138;DHT22;53959;53.626;11.410;2022-11-15T10:00:00;9.90;99.90
5138;DHT22;53959;53.626;11.410;2022-11-15T10:08:27;10.00;99.90
5138;DHT22;53959;53.626;11.410;2022-11-15T10:11:26;10.00;99.90
5138;DHT22;53959;53.626;11.410;2022-11-15T10:13:56;10.10;99.90
5138;DHT22;53959;53.626;11.410;2022-11-15T10:20:12;10.20;99.90
5138;DHT22;53959;53.626;11.410;2022-11-15T10:23:13;10.30;99.90
5138;DHT22;53959;53.626;11.410;2022-11-15T10:25:39;10.30;99.90
5138;DHT22;53959;53.626;11.410;2022-11-15T10:28:37;10.30;99.90
5138;DHT22;53959;53.626;11.410;2022-11-15T10:31:03;10.40;99.90
5138;DHT22;53959;53.626;11.410;2022-11-15T10:33:36;10.50;99.90
5138;DHT22;53959;53.626;11.410;2022-11-15T10:38:52;10.50;99.90
5138;DHT22;53959;53.626;11.410;2022-11-15T10:46:33;10.50;99.90
5138;DHT22;53959;53.626;11.410;2022-11-15T10:49:19;10.60;99.90
5138;DHT22;53959;53.626;11.410;2022-11-15T10:51:48;10.50;99.90
5138;DHT22;53959;53.626;11.410;2022-11-15T10:56:52;10.70;99.90
5138;DHT22;53959;53.626;11.410;2022-11-15T10:59:37;10.70;99.90
5138;DHT22;53959;53.626;11.410;2022-11-15T11:02:27;10.80;99.90
5138;DHT22;53959;53.626;11.410;2022-11-15T11:04:53;10.70;99.90
5138;DHT22;53959;53.626;11.410;2022-11-15T11:07:24;10.70;99.90
5138;DHT22;53959;53.626;11.410;2022-11-15T11:09:58;10.70;99.90
5138;DHT22;53959;53.626;11.410;2022-11-15T11:12:29;10.80;99.90
5138;DHT22;53959;53.626;11.410;2022-11-15T11:14:57;10.70;99.90
5138;DHT22;53959;53.626;11.410;2022-11-15T11:20:21;10.60;99.90
5138;DHT22;53959;53.626;11.410;2022-11-15T11:26:28;10.70;99.90
5138;DHT22;53959;53.626;11.410;2022-11-15T11:35:22;12.30;99.90
5138;DHT22;53959;53.626;11.410;2022-11-15T11:37:47;12.70;99.90
5138;DHT22;53959;53.626;11.410;2022-11-15T11:43:34;12.20;99.90
5138;DHT22;53959;53.626;11.410;2022-11-15T11:46:47;12.10;99.90
5138;DHT22;53959;53.626;11.410;2022-11-15T11:57:33;12.00;99.90
5138;DHT22;53959;53.626;11.410;2022-11-15T12:00:24;12.10;99.90
5138;DHT22;53959;53.626;11.410;2022-11-15T12:05:45;12.90;99.90
5138;DHT22;53959;53.626;11.410;2022-11-15T12:08:40;12.60;99.90
5138;DHT22;53959;53.626;11.410;2022-11-15T12:13:39;12.40;99.90
5138;DHT22;53959;53.626;11.410;2022-11-15T12:16:24;12.40;99.90
5138;DHT22;53959;53.626;11.410;2022-11-15T12:18:53;12.30;99.90
5138;DHT22;53959;53.626;11.410;2022-11-15T12:24:04;12.30;99.90
5138;DHT22;53959;53.626;11.410;2022-11-15T12:26:57;12.30;99.90
5138;DHT22;53959;53.626;11.410;2022-11-15T12:29:38;12.20;99.90
5138;DHT22;53959;53.626;11.410;2022-11-15T12:32:10;12.30;99.90
5138;DHT22;53959;53.626;11.410;2022-11-15T12:34:43;12.40;99.90
5138;DHT22;53959;53.626;11.410;2022-11-15T12:40:20;12.90;99.90
5138;DHT22;53959;53.626;11.410;2022-11-15T12:45:34;13.00;99.90
5138;DHT22;53959;53.626;11.410;2022-11-15T12:50:54;13.10;99.90
5138;DHT22;53959;53.626;11.410;2022-11-15T12:58:59;12.90;99.90
5138;DHT22;53959;53.626;11.410;2022-11-15T13:15:30;13.30;45.10
5138;DHT22;53959;53.626;11.410;2022-11-15T13:17:49;13.60;1.00
5138;DHT22;53959;53.626;11.410;2022-11-15T13:22:49;14.30;99.90
5138;DHT22;53959;53.626;11.410;2022-11-15T13:25:19;14.90;1.00
5138;DHT22;53959;53.626;11.410;2022-11-15T13:27:50;15.00;1.00
5138;DHT22;53959;53.626;11.410;2022-11-15T13:30:26;14.60;99.90
5138;DHT22;53959;53.626;11.410;2022-11-15T13:32:52;14.70;64.90
5138;DHT22;53959;53.626;11.410;2022-11-15T13:35:27;14.40;1.00
5138;DHT22;53959;53.626;11.410;2022-11-15T13:37:54;14.20;1.00
5138;DHT22;53959;53.626;11.410;2022-11-15T13:40:34;13.90;99.90
5138;DHT22;53959;53.626;11.410;2022-11-15T13:46:15;13.70;99.90
5138;DHT22;53959;53.626;11.410;2022-11-15T13:48:43;13.40;99.90
5138;DHT22;53959;53.626;11.410;2022-11-15T13:51:31;13.20;1.00
5138;DHT22;53959;53.626;11.410;2022-11-15T13:56:42;12.90;1.00
5138;DHT22;53959;53.626;11.410;2022-11-15T13:59:18;12.80;99.90
5138;DHT22;53959;53.626;11.410;2022-11-15T14:01:46;12.70;1.00
5138;DHT22;53959;53.626;11.410;2022-11-15T14:04:13;12.60;61.20
5138;DHT22;53959;53.626;11.410;2022-11-15T14:06:50;12.50;99.90
5138;DHT22;53959;53.626;11.410;2022-11-15T14:09:46;12.40;99.90
5138;DHT22;53959;53.626;11.410;2022-11-15T14:12:32;12.30;99.90
5138;DHT22;53959;53.626;11.410;2022-11-15T14:15:01;12.30;99.90
5138;DHT22;53959;53.626;11.410;2022-11-15T14:19:56;12.10;99.90
5138;DHT22;53959;53.626;11.410;2022-11-15T14:22:27;12.10;99.90
5138;DHT22;53959;53.626;11.410;2022-11-15T14:27:42;11.90;99.90
5138;DHT22;53959;53.626;11.410;2022-11-15T14:30:17;11.90;99.90
5138;DHT22;53959;53.626;11.410;2022-11-15T14:32:48;11.90;99.90
5138;DHT22;53959;53.626;11.410;2022-11-15T14:35:22;11.80;99.90
5138;DHT22;53959;53.626;11.410;2022-11-15T14:37:48;11.80;99.90
5138;DHT22;53959;53.626;11.410;2022-11-15T14:40:17;11.70;99.90
5138;DHT22;53959;53.626;11.410;2022-11-15T14:42:45;11.70;99.90
5138;DHT22;53959;53.626;11.410;2022-11-15T14:45:17;11.60;99.90
5138;DHT22;53959;53.626;11.410;2022-11-15T14:47:43;11.60;99.90
5138;DHT22;53959;53.626;11.410;2022-11-15T14:50:17;11.50;99.90
5138;DHT22;53959;53.626;11.410;2022-11-15T14:52:43;11.50;99.90
5138;DHT22;53959;53.626;11.410;2022-11-15T14:55:22;11.40;99.90
5138;DHT22;53959;53.626;11.410;2022-11-15T14:57:48;11.40;99.90
5138;DHT22;53959;53.626;11.410;2022-11-15T15:00:14;11.40;99.90
5138;DHT22;53959;53.626;11.410;2022-11-15T15:02:41;11.30;99.90
5138;DHT22;53959;53.626;11.410;2022-11-15T15:05:18;11.40;99.90
5138;DHT22;53959;53.626;11.410;2022-11-15T15:07:45;11.30;99.90
5138;DHT22;53959;53.626;11.410;2022-11-15T15:10:11;11.30;99.90
5138;DHT22;53959;53.626;11.410;2022-11-15T15:12:37;11.30;99.90
5138;DHT22;53959;53.626;11.410;2022-11-15T15:15:04;11.20;99.90
5138;DHT22;53959;53.626;11.410;2022-11-15T15:17:29;11.20;99.90
5138;DHT22;53959;53.626;11.410;2022-11-15T15:19:55;11.10;99.90
5138;DHT22;53959;53.626;11.410;2022-11-15T15:22:21;11.10;99.90
5138;DHT22;53959;53.626;11.410;2022-11-15T15:24:50;11.10;99.90
5138;DHT22;53959;53.626;11.410;2022-11-15T15:27:16;11.00;99.90
5138;DHT22;53959;53.626;11.410;2022-11-15T15:29:42;11.00;99.90
5138;DHT22;53959;53.626;11.410;2022-11-15T15:32:08;10.90;99.90
5138;DHT22;53959;53.626;11.410;2022-11-15T15:34:34;10.80;99.90
5138;DHT22;53959;53.626;11.410;2022-11-15T15:39:48;10.70;99.90
5138;DHT22;53959;53.626;11.410;2022-11-15T15:42:13;10.70;99.90
5138;DHT22;53959;53.626;11.410;2022-11-15T15:44:39;10.60;99.90
5138;DHT22;53959;53.626;11.410;2022-11-15T15:47:15;10.60;99.90
5138;DHT22;53959;53.626;11.410;2022-11-15T15:49:41;10.50;99.90
5138;DHT22;53959;53.626;11.410;2022-11-15T15:52:07;10.40;99.90
5138;DHT22;53959;53.626;11.410;2022-11-15T15:54:32;10.40;99.90
5138;DHT22;53959;53.626;11.410;2022-11-15T15:56:58;10.30;99.90
5138;DHT22;53959;53.626;11.410;2022-11-15T15:59:23;10.30;99.90
5138;DHT22;53959;53.626;11.410;2022-11-15T16:01:49;10.20;99.90
5138;DHT22;53959;53.626;11.410;2022-11-15T16:04:14;10.20;99.90
5138;DHT22;53959;53.626;11.410;2022-11-15T16:06:40;10.10;99.90
5138;DHT22;53959;53.626;11.410;2022-11-15T16:09:15;10.10;99.90
5138;DHT22;53959;53.626;11.410;2022-11-15T16:11:45;10.00;99.90
5138;DHT22;53959;53.626;11.410;2022-11-15T16:14:11;10.00;99.90
5138;DHT22;53959;53.626;11.410;2022-11-15T16:16:37;10.00;99.90
5138;DHT22;53959;53.626;11.410;2022-11-15T16:19:04;10.00;99.90
5138;DHT22;53959;53.626;11.410;2022-11-15T16:21:29;10.00;99.90
5138;DHT22;53959;53.626;11.410;2022-11-15T16:23:55;10.00;99.90
5138;DHT22;53959;53.626;11.410;2022-11-15T16:26:26;9.90;99.90
5138;DHT22;53959;53.626;11.410;2022-11-15T16:28:52;9.90;99.90
5138;DHT22;53959;53.626;11.410;2022-11-15T16:31:18;9.90;99.90
5138;DHT22;53959;53.626;11.410;2022-11-15T16:33:46;9.80;99.90
5138;DHT22;53959;53.626;11.410;2022-11-15T16:36:20;9.80;99.90
5138;DHT22;53959;53.626;11.410;2022-11-15T16:38:46;9.80;99.90
5138;DHT22;53959;53.626;11.410;2022-11-15T16:41:11;9.70;99.90
5138;DHT22;53959;53.626;11.410;2022-11-15T16:43:37;9.70;99.90
5138;DHT22;53959;53.626;11.410;2022-11-15T16:46:17;9.70;99.90
5138;DHT22;53959;53.626;11.410;2022-11-15T16:48:43;9.70;99.90
5138;DHT22;53959;53.626;11.410;2022-11-15T16:51:09;9.60;99.90
5138;DHT22;53959;53.626;11.410;2022-11-15T16:53:35;9.60;99.90
5138;DHT22;53959;53.626;11.410;2022-11-15T16:56:00;9.60;99.90
5138;DHT22;53959;53.626;11.410;2022-11-15T16:58:26;9.60;99.90
5138;DHT22;53959;53.626;11.410;2022-11-15T17:00:53;9.60;99.90
5138;DHT22;53959;53.626;11.410;2022-11-15T17:03:20;9.60;99.90
5138;DHT22;53959;53.626;11.410;2022-11-15T17:05:45;9.50;99.90
5138;DHT22;53959;53.626;11.410;2022-11-15T17:08:11;9.50;99.90
5138;DHT22;53959;53.626;11.410;2022-11-15T17:10:38;9.40;99.90
5138;DHT22;53959;53.626;11.410;2022-11-15T17:13:11;9.40;99.90
5138;DHT22;53959;53.626;11.410;2022-11-15T17:15:36;9.40;99.90
5138;DHT22;53959;53.626;11.410;2022-11-15T17:18:02;9.40;99.90
5138;DHT22;53959;53.626;11.410;2022-11-15T17:20:28;9.40;99.90
5138;DHT22;53959;53.626;11.410;2022-11-15T17:22:54;9.30;99.90
5138;DHT22;53959;53.626;11.410;2022-11-15T17:25:20;9.30;99.90
5138;DHT22;53959;53.626;11.410;2022-11-15T17:27:45;9.30;99.90
5138;DHT22;53959;53.626;11.410;2022-11-15T17:30:12;9.30;99.90
5138;DHT22;53959;53.626;11.410;2022-11-15T17:32:40;9.30;99.90
5138;DHT22;53959;53.626;11.410;2022-11-15T17:35:06;9.30;99.90
5138;DHT22;53959;53.626;11.410;2022-11-15T17:37:33;9.30;99.90
5138;DHT22;53959;53.626;11.410;2022-11-15T17:39:58;9.30;99.90
5138;DHT22;53959;53.626;11.410;2022-11-15T17:42:24;9.30;99.90
5138;DHT22;53959;53.626;11.410;2022-11-15T17:44:49;9.30;99.90